createdAt,value
2017-11-24T00:01:16.571Z,6.80
2017-11-24T00:03:44.135Z,6.50
2017-11-24T00:06:11.731Z,7.20
2017-11-24T00:08:39.335Z,8.03
2017-11-24T00:11:07.181Z,8.83
2017-11-24T00:13:34.831Z,7.40
2017-11-24T00:16:02.452Z,7.67
2017-11-24T00:18:30.086Z,9.57
2017-11-24T00:20:57.700Z,7.33
2017-11-24T00:23:25.278Z,9.83
2017-11-24T00:25:52.857Z,8.90
2017-11-24T00:28:20.452Z,9.80
2017-11-24T00:30:48.041Z,7.00
2017-11-24T00:33:15.601Z,6.63
2017-11-24T00:35:43.196Z,5.97
2017-11-24T00:38:10.830Z,5.73
2017-11-24T00:40:38.423Z,6.60
2017-11-24T00:43:06.108Z,9.03
2017-11-24T00:45:34.108Z,10.00
2017-11-24T00:48:01.667Z,12.23
2017-11-24T00:50:29.231Z,8.67
2017-11-24T00:52:56.866Z,9.30
2017-11-24T00:55:24.464Z,8.53
2017-11-24T00:57:52.030Z,9.50
2017-11-24T01:00:19.587Z,8.60
2017-11-24T01:02:47.157Z,9.67
2017-11-24T01:05:14.708Z,10.07
2017-11-24T01:07:42.278Z,9.93
2017-11-24T01:10:09.895Z,9.20
2017-11-24T01:12:37.451Z,10.80
2017-11-24T01:15:05.138Z,10.37
2017-11-24T01:17:32.752Z,14.53
2017-11-24T01:20:00.315Z,12.70
2017-11-24T01:22:27.878Z,11.80
2017-11-24T01:24:55.474Z,9.77
2017-11-24T01:27:23.738Z,11.20
2017-11-24T01:29:51.446Z,10.10
2017-11-24T01:32:19.047Z,11.10
2017-11-24T01:34:46.614Z,10.60
2017-11-24T01:37:14.379Z,10.10
2017-11-24T01:39:42.022Z,9.57
2017-11-24T01:42:09.772Z,9.20
2017-11-24T01:44:37.339Z,7.53
2017-11-24T01:47:05.131Z,9.10
2017-11-24T01:49:32.720Z,8.47
2017-11-24T01:52:00.323Z,7.90
2017-11-24T01:54:27.924Z,7.00
2017-11-24T01:56:55.532Z,7.90
2017-11-24T01:59:23.107Z,7.60
2017-11-24T02:01:50.724Z,5.80
2017-11-24T02:04:18.300Z,5.70
2017-11-24T02:06:45.867Z,5.17
2017-11-24T02:09:13.583Z,5.80
2017-11-24T02:11:41.130Z,4.83
2017-11-24T02:14:08.737Z,5.83
2017-11-24T02:16:36.459Z,4.70
2017-11-24T02:19:04.105Z,4.80
2017-11-24T02:21:31.740Z,8.20
2017-11-24T02:23:59.313Z,29.10
2017-11-24T02:26:26.884Z,6.13
2017-11-24T02:28:54.479Z,6.73
2017-11-24T02:31:22.891Z,4.80
2017-11-24T02:33:50.450Z,4.70
2017-11-24T02:36:17.986Z,4.57
2017-11-24T02:38:45.606Z,9.50
2017-11-24T02:41:13.324Z,7.60
2017-11-24T02:43:41.043Z,4.70
2017-11-24T02:46:08.646Z,3.80
2017-11-24T02:48:36.227Z,6.20
2017-11-24T02:51:03.892Z,4.53
2017-11-24T02:53:31.915Z,5.20
2017-11-24T02:55:59.828Z,3.30
2017-11-24T02:58:27.407Z,3.17
2017-11-24T03:00:54.970Z,4.30
2017-11-24T03:03:22.809Z,3.43
2017-11-24T03:05:50.350Z,4.40
2017-11-24T03:08:17.934Z,3.57
2017-11-24T03:10:45.532Z,4.13
2017-11-24T03:13:13.537Z,4.37
2017-11-24T03:15:41.140Z,4.00
2017-11-24T03:18:08.766Z,6.10
2017-11-24T03:20:36.312Z,5.93
2017-11-24T03:23:06.097Z,6.77
2017-11-24T03:25:33.720Z,3.70
2017-11-24T03:28:02.061Z,5.40
2017-11-24T03:30:29.652Z,35.83
2017-11-24T03:32:57.222Z,12.70
2017-11-24T03:35:24.815Z,10.97
2017-11-24T03:37:52.396Z,7.33
2017-11-24T03:40:19.987Z,6.80
2017-11-24T03:42:47.556Z,8.17
2017-11-24T03:45:15.433Z,7.47
2017-11-24T03:47:43.024Z,8.90
2017-11-24T03:50:10.807Z,8.30
2017-11-24T03:52:38.607Z,7.70
2017-11-24T03:55:06.181Z,8.00
2017-11-24T03:57:33.840Z,6.77
2017-11-24T04:00:01.551Z,6.07
2017-11-24T04:02:29.142Z,7.23
2017-11-24T04:04:56.699Z,6.30
2017-11-24T04:07:24.266Z,7.60
2017-11-24T04:09:51.853Z,6.97
2017-11-24T04:12:20.162Z,6.70
2017-11-24T04:14:47.736Z,6.50
2017-11-24T04:17:15.333Z,6.70
2017-11-24T04:19:42.963Z,7.03
2017-11-24T04:22:10.603Z,6.40
2017-11-24T04:24:38.188Z,7.33
2017-11-24T04:27:06.132Z,7.57
2017-11-24T04:29:33.682Z,7.20
2017-11-24T04:32:01.240Z,7.47
2017-11-24T04:34:28.864Z,6.20
2017-11-24T04:36:56.396Z,5.23
2017-11-24T04:39:23.974Z,8.07
2017-11-24T04:41:51.579Z,5.40
2017-11-24T04:44:19.245Z,5.80
2017-11-24T04:46:46.896Z,5.73
2017-11-24T04:49:14.503Z,5.93
2017-11-24T04:51:42.089Z,5.27
2017-11-24T04:54:09.698Z,6.07
2017-11-24T04:56:37.302Z,5.13
2017-11-24T04:59:04.857Z,4.90
2017-11-24T05:01:32.427Z,6.70
2017-11-24T05:04:00.038Z,6.37
2017-11-24T05:06:27.618Z,6.10
2017-11-24T05:08:55.182Z,6.20
2017-11-24T05:11:22.774Z,5.80
2017-11-24T05:13:50.385Z,6.40
2017-11-24T05:16:17.952Z,8.07
2017-11-24T05:18:45.584Z,7.53
2017-11-24T05:21:13.514Z,8.50
2017-11-24T05:23:41.126Z,9.87
2017-11-24T05:26:08.768Z,10.20
2017-11-24T05:28:36.340Z,10.93
2017-11-24T05:31:03.955Z,13.03
2017-11-24T05:33:31.531Z,14.77
2017-11-24T05:35:59.111Z,22.20
2017-11-24T05:38:26.672Z,14.30
2017-11-24T05:40:54.265Z,23.93
2017-11-24T05:45:54.631Z,23.13
2017-11-24T05:48:22.231Z,24.40
2017-11-24T05:50:49.808Z,24.50
2017-11-24T05:53:18.102Z,16.87
2017-11-24T05:55:45.690Z,17.70
2017-11-24T05:58:13.313Z,12.13
2017-11-24T06:00:40.962Z,10.77
2017-11-24T06:03:08.692Z,10.23
2017-11-24T06:05:37.174Z,11.80
2017-11-24T06:08:04.778Z,11.97
2017-11-24T06:10:32.359Z,11.80
2017-11-24T06:12:59.937Z,13.20
2017-11-24T06:15:27.542Z,21.50
2017-11-24T06:17:55.154Z,15.70
2017-11-24T06:20:22.756Z,17.87
2017-11-24T06:22:50.347Z,17.90
2017-11-24T06:25:17.955Z,17.60
2017-11-24T06:27:45.566Z,18.73
2017-11-24T06:30:13.204Z,15.33
2017-11-24T06:32:40.791Z,12.83
2017-11-24T06:35:08.386Z,12.07
2017-11-24T06:37:35.984Z,12.87
2017-11-24T06:40:03.588Z,11.87
2017-11-24T06:42:31.209Z,12.00
2017-11-24T06:44:58.797Z,14.40
2017-11-24T06:47:26.640Z,11.47
2017-11-24T06:49:54.271Z,11.60
2017-11-24T06:52:22.146Z,11.70
2017-11-24T06:54:49.736Z,14.30
2017-11-24T06:57:17.429Z,11.77
2017-11-24T06:59:45.181Z,12.10
2017-11-24T07:02:14.139Z,11.53
2017-11-24T07:04:41.803Z,17.10
2017-11-24T07:07:09.532Z,12.80
2017-11-24T07:09:37.191Z,14.30
2017-11-24T07:12:05.842Z,14.07
2017-11-24T07:14:33.423Z,15.10
2017-11-24T07:17:01.054Z,14.13
2017-11-24T07:19:28.774Z,16.03
2017-11-24T07:21:56.725Z,14.77
2017-11-24T07:24:24.320Z,16.67
2017-11-24T07:26:52.004Z,15.47
2017-11-24T07:29:19.600Z,16.90
2017-11-24T07:31:47.512Z,19.10
2017-11-24T07:34:15.207Z,18.30
2017-11-24T07:36:42.814Z,16.97
2017-11-24T07:39:11.395Z,15.00
2017-11-24T07:41:39.019Z,16.40
2017-11-24T07:44:06.606Z,14.80
2017-11-24T07:46:34.202Z,13.80
2017-11-24T07:49:01.797Z,14.00
2017-11-24T07:51:29.351Z,12.80
2017-11-24T07:53:56.939Z,13.00
2017-11-24T07:56:24.545Z,14.33
2017-11-24T07:58:52.121Z,10.80
2017-11-24T08:01:19.700Z,13.67
2017-11-24T08:03:47.352Z,14.40
2017-11-24T08:06:15.144Z,12.63
2017-11-24T08:08:42.715Z,11.47
2017-11-24T08:11:10.465Z,11.97
2017-11-24T08:13:38.049Z,10.80
2017-11-24T08:16:05.654Z,14.97
2017-11-24T08:18:33.311Z,7.47
2017-11-24T08:21:00.942Z,7.97
2017-11-24T08:23:28.695Z,10.70
2017-11-24T08:25:56.381Z,10.10
2017-11-24T08:28:24.867Z,8.93
2017-11-24T08:30:52.443Z,7.47
2017-11-24T08:33:20.181Z,6.30
2017-11-24T08:35:47.847Z,7.70
2017-11-24T08:38:15.532Z,6.57
2017-11-24T08:40:43.178Z,6.97
2017-11-24T08:43:11.157Z,8.80
2017-11-24T08:45:38.969Z,8.60
2017-11-24T08:48:12.063Z,6.50
2017-11-24T08:50:39.635Z,5.90
2017-11-24T08:53:07.396Z,4.77
2017-11-24T08:55:35.153Z,8.60
2017-11-24T08:58:02.747Z,5.73
2017-11-24T09:00:30.324Z,4.50
2017-11-24T09:02:57.888Z,5.30
2017-11-24T09:05:25.645Z,7.13
2017-11-24T09:07:53.267Z,5.37
2017-11-24T09:10:20.830Z,5.60
2017-11-24T09:12:48.433Z,3.43
2017-11-24T09:15:16.021Z,4.07
2017-11-24T09:17:43.598Z,3.10
2017-11-24T09:20:11.216Z,3.90
2017-11-24T09:22:39.469Z,4.13
2017-11-24T09:25:07.126Z,4.23
2017-11-24T09:27:34.820Z,3.73
2017-11-24T09:30:02.410Z,4.03
2017-11-24T09:32:30.028Z,4.53
2017-11-24T09:34:57.579Z,4.37
2017-11-24T09:37:25.115Z,4.57
2017-11-24T09:39:52.705Z,4.13
2017-11-24T09:42:20.277Z,3.80
2017-11-24T09:44:47.869Z,4.37
2017-11-24T09:47:15.456Z,4.40
2017-11-24T09:49:43.035Z,4.10
2017-11-24T09:52:10.696Z,5.50
2017-11-24T09:54:38.314Z,5.33
2017-11-24T09:57:05.941Z,6.63
2017-11-24T09:59:33.541Z,7.43
2017-11-24T10:02:01.113Z,7.60
2017-11-24T10:04:28.660Z,8.43
2017-11-24T10:06:56.220Z,6.60
2017-11-24T10:09:23.842Z,8.67
2017-11-24T10:11:51.617Z,7.10
2017-11-24T10:14:19.189Z,6.30
2017-11-24T10:16:46.756Z,6.63
2017-11-24T10:19:14.393Z,5.67
2017-11-24T10:21:47.438Z,6.40
2017-11-24T10:24:15.142Z,6.97
2017-11-24T10:26:42.710Z,6.90
2017-11-24T10:29:10.504Z,7.30
2017-11-24T10:31:38.102Z,6.23
2017-11-24T10:34:05.665Z,6.60
2017-11-24T10:36:33.214Z,6.40
2017-11-24T10:39:00.841Z,6.73
2017-11-24T10:41:28.391Z,6.20
2017-11-24T10:43:55.962Z,6.20
2017-11-24T10:46:23.646Z,5.93
2017-11-24T10:48:51.185Z,7.10
2017-11-24T10:51:18.724Z,6.50
2017-11-24T10:53:46.357Z,6.77
2017-11-24T10:56:13.976Z,7.87
2017-11-24T10:58:41.552Z,6.53
2017-11-24T11:01:09.201Z,6.53
2017-11-24T11:03:36.738Z,6.53
2017-11-24T11:06:04.293Z,8.20
2017-11-24T11:08:31.844Z,7.53
2017-11-24T11:10:59.427Z,7.13
2017-11-24T11:13:27.006Z,6.10
2017-11-24T11:15:54.607Z,6.70
2017-11-24T11:18:22.133Z,6.10
2017-11-24T11:20:49.673Z,6.10
2017-11-24T11:23:17.222Z,6.60
2017-11-24T11:25:44.789Z,6.13
2017-11-24T11:28:22.843Z,6.37
2017-11-24T11:30:50.405Z,5.10
2017-11-24T11:33:18.007Z,5.77
2017-11-24T11:35:45.574Z,7.00
2017-11-24T11:38:13.160Z,7.50
2017-11-24T11:40:41.008Z,7.50
2017-11-24T11:43:08.580Z,7.90
2017-11-24T11:45:36.830Z,5.77
2017-11-24T11:48:04.384Z,6.87
2017-11-24T11:50:31.944Z,6.80
2017-11-24T11:52:59.545Z,5.50
2017-11-24T11:55:27.133Z,6.30
2017-11-24T11:57:54.701Z,6.60
2017-11-24T12:00:22.272Z,7.43
2017-11-24T12:02:49.867Z,7.17
2017-11-24T12:05:17.390Z,7.00
2017-11-24T12:07:44.926Z,6.40
2017-11-24T12:10:12.659Z,7.20
2017-11-24T12:12:40.190Z,6.70
2017-11-24T12:15:07.834Z,6.67
2017-11-24T12:17:35.446Z,6.43
2017-11-24T12:20:03.011Z,7.27
2017-11-24T12:22:30.558Z,7.63
2017-11-24T12:24:58.132Z,7.63
2017-11-24T12:27:25.678Z,6.80
2017-11-24T12:29:53.257Z,7.00
2017-11-24T12:32:20.875Z,7.60
2017-11-24T12:34:48.457Z,6.93
2017-11-24T12:37:16.022Z,7.20
2017-11-24T12:39:43.587Z,7.40
2017-11-24T12:42:11.145Z,8.07
2017-11-24T12:44:38.692Z,8.73
2017-11-24T12:47:06.326Z,7.60
2017-11-24T12:49:33.885Z,8.13
2017-11-24T12:52:01.452Z,8.13
2017-11-24T12:54:29.030Z,9.57
2017-11-24T12:56:56.579Z,9.17
2017-11-24T12:59:24.182Z,14.50
2017-11-24T13:01:51.749Z,8.70
2017-11-24T13:04:19.304Z,9.23
2017-11-24T13:06:46.889Z,10.00
2017-11-24T13:09:14.474Z,10.63
2017-11-24T13:11:42.027Z,10.30
2017-11-24T13:14:09.587Z,8.87
2017-11-24T13:16:37.149Z,10.20
2017-11-24T13:19:04.699Z,10.20
2017-11-24T13:21:32.307Z,10.90
2017-11-24T13:23:59.850Z,11.40
2017-11-24T13:26:27.386Z,11.00
2017-11-24T13:28:54.945Z,12.50
2017-11-24T13:31:26.155Z,11.80
2017-11-24T13:33:53.699Z,10.23
2017-11-24T13:36:21.248Z,10.90
2017-11-24T13:38:48.810Z,10.37
2017-11-24T13:41:16.350Z,12.10
2017-11-24T13:43:43.881Z,11.23
2017-11-24T13:46:11.492Z,11.30
2017-11-24T13:48:39.052Z,12.33
2017-11-24T13:51:06.639Z,12.10
2017-11-24T13:53:34.209Z,11.40
2017-11-24T13:56:01.740Z,11.03
2017-11-24T13:58:29.327Z,11.43
2017-11-24T14:00:56.954Z,11.67
2017-11-24T14:03:24.520Z,11.47
2017-11-24T14:05:52.116Z,11.67
2017-11-24T14:08:19.748Z,11.20
2017-11-24T14:10:47.278Z,10.53
2017-11-24T14:13:14.829Z,12.10
2017-11-24T14:15:42.423Z,12.10
2017-11-24T14:18:09.960Z,13.20
2017-11-24T14:20:37.526Z,38.53
2017-11-24T14:23:05.134Z,13.50
2017-11-24T14:25:32.679Z,15.57
2017-11-24T14:28:00.256Z,12.43
2017-11-24T14:30:27.916Z,14.03
2017-11-24T14:32:55.473Z,12.93
2017-11-24T14:35:23.053Z,11.70
2017-11-24T14:37:50.626Z,12.10
2017-11-24T14:40:18.169Z,15.97
2017-11-24T14:42:45.698Z,16.57
2017-11-24T14:45:13.254Z,13.37
2017-11-24T14:47:40.810Z,14.50
2017-11-24T14:50:08.342Z,18.97
2017-11-24T14:52:35.969Z,14.60
2017-11-24T14:55:03.524Z,13.13
2017-11-24T14:57:31.072Z,26.67
2017-11-24T14:59:58.649Z,15.60
2017-11-24T15:02:26.187Z,17.77
2017-11-24T15:04:53.755Z,42.00
2017-11-24T15:07:21.344Z,23.23
2017-11-24T15:09:48.892Z,22.27
2017-11-24T15:12:16.637Z,24.17
2017-11-24T15:14:44.206Z,24.47
2017-11-24T15:17:12.192Z,20.90
2017-11-24T15:19:40.128Z,28.40
2017-11-24T15:22:08.311Z,30.53
2017-11-24T15:24:35.882Z,31.77
2017-11-24T15:27:03.531Z,35.43
2017-11-24T15:29:31.110Z,23.70
2017-11-24T15:31:58.669Z,19.83
2017-11-24T15:34:26.243Z,23.10
2017-11-24T15:36:53.838Z,29.27
2017-11-24T15:39:21.422Z,27.50
2017-11-24T15:41:49.067Z,28.73
2017-11-24T15:44:16.653Z,29.70
2017-11-24T15:46:44.243Z,27.30
2017-11-24T15:49:12.016Z,25.90
2017-11-24T15:51:39.772Z,27.57
2017-11-24T15:54:07.360Z,32.77
2017-11-24T15:56:35.180Z,28.97
2017-11-24T15:59:02.916Z,27.93
2017-11-24T16:01:30.642Z,32.23
2017-11-24T16:04:00.598Z,29.80
2017-11-24T16:06:28.186Z,31.07
2017-11-24T16:08:55.755Z,31.87
2017-11-24T16:11:23.356Z,33.40
2017-11-24T16:13:50.928Z,30.70
2017-11-24T16:16:18.522Z,28.40
2017-11-24T16:18:46.115Z,25.97
2017-11-24T16:21:13.782Z,27.57
2017-11-24T16:23:41.343Z,24.30
2017-11-24T16:26:08.925Z,24.93
2017-11-24T16:28:36.514Z,23.10
2017-11-24T16:31:04.099Z,24.73
2017-11-24T16:33:32.426Z,23.07
2017-11-24T16:36:00.057Z,21.80
2017-11-24T16:38:27.617Z,22.40
2017-11-24T16:40:55.161Z,21.67
2017-11-24T16:43:24.236Z,22.70
2017-11-24T16:45:51.917Z,22.70
2017-11-24T16:48:19.511Z,22.13
2017-11-24T16:50:47.123Z,23.43
2017-11-24T16:53:14.673Z,25.90
2017-11-24T16:55:42.275Z,29.67
2017-11-24T16:58:09.893Z,20.30
2017-11-24T17:00:37.464Z,23.50
2017-11-24T17:03:05.209Z,23.03
2017-11-24T17:05:32.797Z,21.80
2017-11-24T17:08:00.439Z,22.50
2017-11-24T17:10:28.035Z,22.10
2017-11-24T17:12:56.691Z,21.70
2017-11-24T17:15:24.375Z,25.20
2017-11-24T17:17:51.991Z,31.97
2017-11-24T17:20:19.591Z,25.90
2017-11-24T17:22:47.553Z,23.73
2017-11-24T17:25:15.201Z,24.27
2017-11-24T17:27:42.821Z,20.90
2017-11-24T17:30:11.453Z,21.97
2017-11-24T17:32:39.079Z,25.40
2017-11-24T17:35:06.645Z,35.00
2017-11-24T17:37:34.260Z,43.50
2017-11-24T17:40:01.853Z,45.60
2017-11-24T17:42:29.487Z,39.40
2017-11-24T17:44:57.240Z,35.90
2017-11-24T17:47:24.910Z,35.97
2017-11-24T17:49:52.484Z,34.60
2017-11-24T17:52:20.077Z,32.90
2017-11-24T17:54:47.625Z,34.03
2017-11-24T17:57:15.176Z,32.03
2017-11-24T17:59:42.786Z,39.37
2017-11-24T18:02:14.287Z,35.50
2017-11-24T18:04:41.843Z,33.83
2017-11-24T18:07:09.858Z,35.37
2017-11-24T18:09:38.108Z,31.27
2017-11-24T18:12:05.696Z,31.70
2017-11-24T18:14:33.333Z,31.63
2017-11-24T18:17:00.906Z,30.47
2017-11-24T18:19:28.524Z,31.57
2017-11-24T18:21:56.321Z,30.00
2017-11-24T18:24:23.882Z,39.30
2017-11-24T18:26:51.496Z,55.03
2017-11-24T18:29:19.126Z,47.53
2017-11-24T18:31:46.760Z,55.33
2017-11-24T18:34:14.356Z,42.00
2017-11-24T18:36:42.000Z,50.40
2017-11-24T18:39:09.769Z,48.60
2017-11-24T18:41:37.430Z,43.10
2017-11-24T18:44:05.029Z,35.23
2017-11-24T18:46:32.636Z,37.53
2017-11-24T18:49:00.218Z,44.53
2017-11-24T18:51:27.857Z,45.50
2017-11-24T18:53:55.456Z,44.30
2017-11-24T18:56:23.117Z,39.90
2017-11-24T18:58:50.771Z,37.43
2017-11-24T19:01:18.354Z,35.60
2017-11-24T19:03:48.540Z,33.73
2017-11-24T19:06:16.158Z,34.37
2017-11-24T19:08:44.432Z,34.10
2017-11-24T19:11:12.083Z,31.23
2017-11-24T19:13:39.659Z,31.90
2017-11-24T19:16:07.220Z,33.73
2017-11-24T19:18:34.837Z,35.50
2017-11-24T19:21:02.617Z,39.50
2017-11-24T19:23:30.201Z,36.30
2017-11-24T19:25:57.897Z,34.93
2017-11-24T19:28:25.489Z,37.40
2017-11-24T19:30:53.109Z,34.70
2017-11-24T19:33:20.751Z,36.00
2017-11-24T19:35:48.548Z,33.03
2017-11-24T19:38:16.204Z,32.83
2017-11-24T19:40:43.814Z,33.67
2017-11-24T19:43:11.639Z,31.30
2017-11-24T19:45:39.202Z,31.80
2017-11-24T19:48:08.523Z,30.23
2017-11-24T19:50:36.181Z,34.37
2017-11-24T19:53:03.776Z,33.10
2017-11-24T19:55:31.361Z,35.30
2017-11-24T19:57:58.915Z,43.47
2017-11-24T20:00:26.533Z,32.97
2017-11-24T20:02:54.098Z,41.47
2017-11-24T20:05:21.780Z,43.63
2017-11-24T20:07:49.350Z,62.40
2017-11-24T20:10:16.942Z,83.33
2017-11-24T20:12:44.614Z,49.67
2017-11-24T20:15:12.275Z,48.93
2017-11-24T20:17:39.845Z,44.50
2017-11-24T20:20:07.439Z,54.30
2017-11-24T20:22:35.020Z,42.83
2017-11-24T20:25:02.575Z,38.37
2017-11-24T20:27:30.184Z,35.77
2017-11-24T20:29:57.797Z,43.97
2017-11-24T20:32:25.386Z,47.53
2017-11-24T20:34:52.997Z,46.17
2017-11-24T20:37:20.568Z,53.97
2017-11-24T20:39:48.144Z,38.70
2017-11-24T20:42:15.730Z,35.23
2017-11-24T20:44:43.306Z,36.87
2017-11-24T20:47:10.907Z,36.87
2017-11-24T20:49:38.498Z,36.57
2017-11-24T20:52:06.064Z,85.47
2017-11-24T20:54:33.643Z,39.43
2017-11-24T20:57:01.241Z,33.67
2017-11-24T20:59:28.814Z,33.50
2017-11-24T21:01:56.428Z,32.03
2017-11-24T21:04:24.035Z,30.60
2017-11-24T21:06:51.610Z,25.27
2017-11-24T21:09:19.191Z,24.30
2017-11-24T21:11:46.777Z,22.43
2017-11-24T21:14:14.387Z,23.90
2017-11-24T21:16:42.167Z,24.33
2017-11-24T21:19:09.958Z,21.13
2017-11-24T21:21:37.514Z,25.93
2017-11-24T21:24:05.147Z,21.17
2017-11-24T21:26:32.802Z,19.77
2017-11-24T21:29:00.447Z,21.40
2017-11-24T21:34:18.476Z,22.90
2017-11-24T21:36:46.073Z,23.03
2017-11-24T21:39:13.674Z,22.97
2017-11-24T21:41:41.284Z,19.53
2017-11-24T21:44:08.845Z,22.50
2017-11-24T21:46:36.402Z,19.27
2017-11-24T21:49:04.055Z,20.80
2017-11-24T21:51:31.703Z,22.33
2017-11-24T21:53:59.245Z,21.90
2017-11-24T21:56:27.849Z,19.40
2017-11-24T21:58:55.448Z,21.53
2017-11-24T22:01:23.008Z,20.50
2017-11-24T22:03:50.600Z,19.50
2017-11-24T22:06:18.219Z,21.73
2017-11-24T22:08:45.773Z,25.93
2017-11-24T22:11:13.391Z,24.33
2017-11-24T22:13:40.960Z,21.80
2017-11-24T22:16:08.624Z,22.57
2017-11-24T22:18:36.360Z,23.00
2017-11-24T22:21:04.036Z,21.27
2017-11-24T22:23:31.604Z,21.70
2017-11-24T22:25:59.156Z,22.50
2017-11-24T22:28:26.770Z,23.77
2017-11-24T22:30:54.491Z,26.70
2017-11-24T22:33:22.162Z,31.90
2017-11-24T22:35:49.751Z,38.00
2017-11-24T22:38:17.405Z,33.03
2017-11-24T22:40:44.983Z,25.33
2017-11-24T22:43:12.811Z,28.37
2017-11-24T22:45:40.460Z,43.43
2017-11-24T22:48:08.059Z,24.00
2017-11-24T22:50:35.675Z,24.30
2017-11-24T22:53:03.360Z,33.70
2017-11-24T22:55:31.079Z,30.47
2017-11-24T22:57:58.691Z,28.07
2017-11-24T23:00:26.257Z,23.63
2017-11-24T23:02:53.856Z,24.37
2017-11-24T23:05:21.429Z,32.63
2017-11-24T23:07:50.599Z,25.00
2017-11-24T23:10:18.685Z,17.93
2017-11-24T23:12:46.269Z,37.53
2017-11-24T23:15:13.894Z,25.10
2017-11-24T23:17:41.510Z,22.10
2017-11-24T23:20:09.096Z,21.43
2017-11-24T23:22:36.667Z,26.67
2017-11-24T23:25:04.929Z,31.00
2017-11-24T23:27:32.484Z,26.27
2017-11-24T23:30:00.074Z,26.33
2017-11-24T23:32:27.724Z,28.67
2017-11-24T23:34:55.295Z,33.10
2017-11-24T23:37:22.856Z,22.80
2017-11-24T23:39:50.477Z,23.20
2017-11-24T23:42:18.104Z,23.87
2017-11-24T23:44:45.656Z,28.20
2017-11-24T23:47:13.251Z,21.73
2017-11-24T23:49:40.843Z,21.10
2017-11-24T23:52:08.399Z,18.60
2017-11-24T23:54:36.048Z,19.70
2017-11-24T23:57:03.603Z,20.30
2017-11-24T23:59:31.187Z,18.23
